Airfield :
LOGIN :

Register | Disclaimer

   EN    FR    IT 

 










Legend :    VFR   Marginal VFR   IFR   Intensive IFR   Very Intensive IFR
Visi :
Ceiling :
>= 8 km
>= 3000ft
5 to 8 km
1000 to 3000 ft
1500m to 5 km
500 to 1000 ft
800 to 1500m
200 to 500 ft
< 800m
< 200 ft
Symbols :   Thunderstorms  Fog  Heavy snow  Heavy precipitations  Wind > 20 kt
SIGMETs :     Misc.  Thunderstorms  Icing  Turbulence  Mountain Waves  Volcanic Ashes






- Airport Elevation : 72 ft
- IATA code : UDE


EHVK - Volkel Airbase

CURRENT METAR :
  • 201555Z AUTO 05006KT 9999 SCT037 21/13 Q1009 BLU

EXPIRED METARs :
  • 201525Z AUTO 14004KT 050V200 9999 NCD 20/12 Q1009 BLU
  • 201455Z AUTO VRB02KT 9999 BKN032 OVC088 20/13 Q1010 BLU
  • 201425Z AUTO 13006KT 120V220 9999 SCT036 SCT041 BKN094 21/12 Q1010 BLU
  • 201355Z AUTO 10004KT 080V190 9999 NCD 20/13 Q1010 BLU
  • 201325Z AUTO 12004KT 9999 OVC098 20/12 Q1010 BLU
  • 201255Z AUTO 11004KT 020V130 9999 SCT029 SCT034 BKN038 19/13 Q1010 BLU
  • 201225Z AUTO 09003KT 9999 FEW029 SCT037 19/12 Q1011 BLU
  • 201155Z AUTO 08002KT 9999 FEW031 19/11 Q1011 BLU
  • 201125Z AUTO 34004KT 340V140 9999 OVC022 18/12 Q1011 WHT

TAF TAF EHVK
Valid from the 20 at 13:00 until the 21 at 01:00 UTC


201249Z 2013/2101 09004KT 9999 FEW030
PROB30
TEMPO 2013/2018 VRB08G18KT 3500 SHRA TSRA FEW016 SCT020CB
PROB30 2023/2101 4000 BR



MET'MAP, your aeronautical weather chart ! - Copyright ORBIFLY December 2007 - Disclaimer

ORBIFLY MET'MAP TEAM :

Programming & Development : Alexandra Zaïnal
Original concept : Baudouin d'Aumeries
Technical & hardware support : Manuel Goepfert
Assistance : Marc-Olivier Méhu




SOURCES & CREDITS :

   NOAA